sensor_id;sensor_type;location;lat;lon;timestamp;pressure;altitude;pressure_sealevel;temperature;humidity
81509;BME280;70930;52.412;13.554;2024-02-04T00:02:01;101271.13;;;7.37;90.12
81509;BME280;70930;52.412;13.554;2024-02-04T00:04:28;101268.06;;;7.42;88.92
81509;BME280;70930;52.412;13.554;2024-02-04T00:06:53;101263.34;;;7.36;88.40
81509;BME280;70930;52.412;13.554;2024-02-04T00:09:18;101256.25;;;7.36;88.89
81509;BME280;70930;52.412;13.554;2024-02-04T00:11:44;101253.91;;;7.33;88.45
81509;BME280;70930;52.412;13.554;2024-02-04T00:14:10;101253.03;;;7.43;88.04
81509;BME280;70930;52.412;13.554;2024-02-04T00:16:35;101270.31;;;7.37;88.53
81509;BME280;70930;52.412;13.554;2024-02-04T00:19:00;101272.78;;;7.38;88.08
81509;BME280;70930;52.412;13.554;2024-02-04T00:21:26;101277.13;;;7.40;88.50
81509;BME280;70930;52.412;13.554;2024-02-04T00:23:51;101260.28;;;7.41;88.26
81509;BME280;70930;52.412;13.554;2024-02-04T00:26:16;101267.66;;;7.37;88.39
81509;BME280;70930;52.412;13.554;2024-02-04T00:28:42;101266.97;;;7.35;88.63
81509;BME280;70930;52.412;13.554;2024-02-04T00:31:08;101268.59;;;7.46;88.14
81509;BME280;70930;52.412;13.554;2024-02-04T00:33:34;101258.31;;;7.43;88.73
81509;BME280;70930;52.412;13.554;2024-02-04T00:35:59;101254.72;;;7.44;88.21
81509;BME280;70930;52.412;13.554;2024-02-04T00:38:24;101283.94;;;7.32;89.35
81509;BME280;70930;52.412;13.554;2024-02-04T00:40:50;101274.03;;;7.34;87.65
81509;BME280;70930;52.412;13.554;2024-02-04T00:43:17;101282.84;;;7.35;87.72
81509;BME280;70930;52.412;13.554;2024-02-04T00:45:43;101271.69;;;7.22;86.84
81509;BME280;70930;52.412;13.554;2024-02-04T00:48:08;101278.09;;;7.09;85.28
81509;BME280;70930;52.412;13.554;2024-02-04T00:50:33;101266.03;;;7.17;84.67
81509;BME280;70930;52.412;13.554;2024-02-04T00:52:59;101247.25;;;7.00;84.75
81509;BME280;70930;52.412;13.554;2024-02-04T00:55:24;101251.69;;;7.09;84.13
81509;BME280;70930;52.412;13.554;2024-02-04T00:57:49;101248.38;;;6.98;85.23
81509;BME280;70930;52.412;13.554;2024-02-04T01:00:15;101260.59;;;6.99;85.60
81509;BME280;70930;52.412;13.554;2024-02-04T01:02:41;101253.09;;;6.94;84.21
81509;BME280;70930;52.412;13.554;2024-02-04T01:05:07;101265.19;;;6.97;84.54
81509;BME280;70930;52.412;13.554;2024-02-04T01:07:32;101267.53;;;6.90;84.63
81509;BME280;70930;52.412;13.554;2024-02-04T01:09:58;101260.03;;;6.85;84.56
81509;BME280;70930;52.412;13.554;2024-02-04T01:12:23;101255.59;;;6.86;86.23
81509;BME280;70930;52.412;13.554;2024-02-04T01:14:49;101255.47;;;6.97;86.04
81509;BME280;70930;52.412;13.554;2024-02-04T01:17:14;101250.34;;;6.96;86.43
81509;BME280;70930;52.412;13.554;2024-02-04T01:19:39;101257.13;;;6.98;87.16
81509;BME280;70930;52.412;13.554;2024-02-04T01:22:05;101242.94;;;6.89;87.98
81509;BME280;70930;52.412;13.554;2024-02-04T01:24:31;101235.03;;;6.89;87.37
81509;BME280;70930;52.412;13.554;2024-02-04T01:26:56;101236.97;;;6.78;86.96
81509;BME280;70930;52.412;13.554;2024-02-04T01:29:22;101241.13;;;6.61;88.39
81509;BME280;70930;52.412;13.554;2024-02-04T01:31:47;101260.13;;;6.55;87.68
81509;BME280;70930;52.412;13.554;2024-02-04T01:34:12;101252.38;;;6.53;86.91
81509;BME280;70930;52.412;13.554;2024-02-04T01:36:38;101247.06;;;6.44;87.12
81509;BME280;70930;52.412;13.554;2024-02-04T01:39:03;101244.88;;;6.58;87.49
81509;BME280;70930;52.412;13.554;2024-02-04T01:41:30;101251.69;;;6.61;86.55
81509;BME280;70930;52.412;13.554;2024-02-04T01:43:55;101252.38;;;6.53;86.31
81509;BME280;70930;52.412;13.554;2024-02-04T01:46:21;101247.94;;;6.54;86.06
81509;BME280;70930;52.412;13.554;2024-02-04T01:48:47;101239.59;;;6.58;86.62
81509;BME280;70930;52.412;13.554;2024-02-04T01:51:14;101250.25;;;6.37;87.35
81509;BME280;70930;52.412;13.554;2024-02-04T01:53:40;101252.06;;;6.37;87.71
81509;BME280;70930;52.412;13.554;2024-02-04T01:56:07;101249.84;;;6.52;86.28
81509;BME280;70930;52.412;13.554;2024-02-04T01:58:33;101257.19;;;6.48;87.00
81509;BME280;70930;52.412;13.554;2024-02-04T02:00:59;101256.94;;;6.42;86.78
81509;BME280;70930;52.412;13.554;2024-02-04T02:03:26;101253.47;;;6.41;87.75
81509;BME280;70930;52.412;13.554;2024-02-04T02:05:51;101251.47;;;6.24;88.74
81509;BME280;70930;52.412;13.554;2024-02-04T02:08:17;101250.63;;;6.23;89.13
81509;BME280;70930;52.412;13.554;2024-02-04T02:10:45;101258.13;;;6.28;89.53
81509;BME280;70930;52.412;13.554;2024-02-04T02:15:51;101253.13;;;6.25;89.65
81509;BME280;70930;52.412;13.554;2024-02-04T02:18:25;101255.38;;;6.29;90.16
81509;BME280;70930;52.412;13.554;2024-02-04T02:23:43;101249.53;;;6.26;90.64
81509;BME280;70930;52.412;13.554;2024-02-04T02:26:13;101226.16;;;6.11;90.99
81509;BME280;70930;52.412;13.554;2024-02-04T02:28:40;101223.38;;;6.13;91.61
81509;BME280;70930;52.412;13.554;2024-02-04T02:31:05;101214.53;;;6.14;91.04
81509;BME280;70930;52.412;13.554;2024-02-04T02:33:31;101217.13;;;6.04;91.36
81509;BME280;70930;52.412;13.554;2024-02-04T02:35:57;101228.94;;;6.10;91.38
81509;BME280;70930;52.412;13.554;2024-02-04T02:40:54;101221.06;;;5.89;92.64
81509;BME280;70930;52.412;13.554;2024-02-04T02:43:23;101211.38;;;5.89;92.68
81509;BME280;70930;52.412;13.554;2024-02-04T02:45:49;101214.88;;;6.00;91.59
81509;BME280;70930;52.412;13.554;2024-02-04T02:48:15;101219.13;;;5.91;92.31
81509;BME280;70930;52.412;13.554;2024-02-04T02:50:41;101235.00;;;6.01;91.93
81509;BME280;70930;52.412;13.554;2024-02-04T02:53:06;101227.09;;;6.01;91.43
81509;BME280;70930;52.412;13.554;2024-02-04T02:55:31;101233.81;;;5.84;92.56
81509;BME280;70930;52.412;13.554;2024-02-04T02:57:57;101236.69;;;5.81;92.29
81509;BME280;70930;52.412;13.554;2024-02-04T03:00:22;101242.81;;;5.81;92.83
81509;BME280;70930;52.412;13.554;2024-02-04T03:02:48;101242.16;;;5.89;92.39
81509;BME280;70930;52.412;13.554;2024-02-04T03:05:17;101241.69;;;5.74;93.00
81509;BME280;70930;52.412;13.554;2024-02-04T03:07:42;101237.66;;;5.70;93.83
81509;BME280;70930;52.412;13.554;2024-02-04T03:10:08;101229.44;;;5.73;94.50
81509;BME280;70930;52.412;13.554;2024-02-04T03:12:34;101235.25;;;5.67;94.60
81509;BME280;70930;52.412;13.554;2024-02-04T03:14:59;101228.06;;;5.69;94.45
81509;BME280;70930;52.412;13.554;2024-02-04T03:17:25;101240.13;;;5.72;95.41
81509;BME280;70930;52.412;13.554;2024-02-04T03:19:50;101229.38;;;5.84;95.26
81509;BME280;70930;52.412;13.554;2024-02-04T03:22:20;101227.97;;;5.80;95.13
81509;BME280;70930;52.412;13.554;2024-02-04T03:24:47;101221.91;;;5.89;95.05
81509;BME280;70930;52.412;13.554;2024-02-04T03:27:12;101223.63;;;6.00;94.83
81509;BME280;70930;52.412;13.554;2024-02-04T03:29:38;101220.72;;;6.03;95.10
81509;BME280;70930;52.412;13.554;2024-02-04T03:32:03;101217.94;;;5.95;95.11
81509;BME280;70930;52.412;13.554;2024-02-04T03:34:29;101221.13;;;5.99;95.51
81509;BME280;70930;52.412;13.554;2024-02-04T03:36:54;101221.88;;;6.10;94.28
81509;BME280;70930;52.412;13.554;2024-02-04T03:39:20;101216.34;;;6.13;94.40
81509;BME280;70930;52.412;13.554;2024-02-04T03:41:45;101222.69;;;6.11;94.37
81509;BME280;70930;52.412;13.554;2024-02-04T03:44:11;101210.59;;;6.08;94.20
81509;BME280;70930;52.412;13.554;2024-02-04T03:46:36;101208.84;;;6.19;92.98
81509;BME280;70930;52.412;13.554;2024-02-04T03:49:05;101209.09;;;6.15;93.86
81509;BME280;70930;52.412;13.554;2024-02-04T03:51:30;101198.97;;;6.21;93.09
81509;BME280;70930;52.412;13.554;2024-02-04T03:53:56;101191.63;;;6.24;92.80
81509;BME280;70930;52.412;13.554;2024-02-04T03:56:21;101186.34;;;6.24;92.94
81509;BME280;70930;52.412;13.554;2024-02-04T03:58:46;101186.34;;;6.24;93.01
81509;BME280;70930;52.412;13.554;2024-02-04T04:01:12;101189.00;;;6.24;92.53
81509;BME280;70930;52.412;13.554;2024-02-04T04:03:41;101198.31;;;6.28;92.98
81509;BME280;70930;52.412;13.554;2024-02-04T04:06:07;101189.81;;;6.25;92.33
81509;BME280;70930;52.412;13.554;2024-02-04T04:08:32;101186.91;;;6.28;92.89
81509;BME280;70930;52.412;13.554;2024-02-04T04:10:58;101191.22;;;6.19;92.71
81509;BME280;70930;52.412;13.554;2024-02-04T04:13:23;101187.59;;;6.20;92.33
81509;BME280;70930;52.412;13.554;2024-02-04T04:15:50;101181.50;;;6.20;92.62
81509;BME280;70930;52.412;13.554;2024-02-04T04:18:15;101174.41;;;6.20;92.19
81509;BME280;70930;52.412;13.554;2024-02-04T04:20:41;101177.19;;;6.19;92.22
81509;BME280;70930;52.412;13.554;2024-02-04T04:23:06;101172.91;;;6.27;91.73
81509;BME280;70930;52.412;13.554;2024-02-04T04:25:31;101169.44;;;6.17;91.78
81509;BME280;70930;52.412;13.554;2024-02-04T04:27:58;101168.31;;;6.10;92.01
81509;BME280;70930;52.412;13.554;2024-02-04T04:30:23;101163.25;;;5.97;91.73
81509;BME280;70930;52.412;13.554;2024-02-04T04:32:49;101155.53;;;6.05;90.82
81509;BME280;70930;52.412;13.554;2024-02-04T04:35:14;101161.88;;;5.93;91.59
81509;BME280;70930;52.412;13.554;2024-02-04T04:37:39;101152.28;;;5.92;91.54
81509;BME280;70930;52.412;13.554;2024-02-04T04:40:05;101159.75;;;5.87;91.27
81509;BME280;70930;52.412;13.554;2024-02-04T04:42:31;101164.03;;;5.88;91.79
81509;BME280;70930;52.412;13.554;2024-02-04T04:44:56;101162.13;;;5.90;91.75
81509;BME280;70930;52.412;13.554;2024-02-04T04:47:21;101165.63;;;6.00;90.84
81509;BME280;70930;52.412;13.554;2024-02-04T04:49:47;101160.31;;;5.90;91.64
81509;BME280;70930;52.412;13.554;2024-02-04T04:52:12;101164.97;;;5.77;91.61
81509;BME280;70930;52.412;13.554;2024-02-04T04:54:39;101161.41;;;5.78;91.91
81509;BME280;70930;52.412;13.554;2024-02-04T04:57:05;101152.91;;;5.75;92.21
81509;BME280;70930;52.412;13.554;2024-02-04T04:59:30;101153.50;;;5.78;91.58
81509;BME280;70930;52.412;13.554;2024-02-04T05:01:56;101144.88;;;5.76;91.59
81509;BME280;70930;52.412;13.554;2024-02-04T05:04:21;101146.25;;;5.71;91.27
81509;BME280;70930;52.412;13.554;2024-02-04T05:06:50;101140.00;;;5.72;91.11
81509;BME280;70930;52.412;13.554;2024-02-04T05:09:15;101134.25;;;5.47;91.89
81509;BME280;70930;52.412;13.554;2024-02-04T05:11:41;101126.81;;;5.62;90.67
81509;BME280;70930;52.412;13.554;2024-02-04T05:14:06;101124.28;;;5.60;91.22
81509;BME280;70930;52.412;13.554;2024-02-04T05:16:32;101122.91;;;5.56;90.74
81509;BME280;70930;52.412;13.554;2024-02-04T05:18:57;101128.00;;;5.48;91.09
81509;BME280;70930;52.412;13.554;2024-02-04T05:21:23;101125.34;;;5.38;91.61
81509;BME280;70930;52.412;13.554;2024-02-04T05:23:48;101129.22;;;5.44;90.86
81509;BME280;70930;52.412;13.554;2024-02-04T05:26:14;101133.09;;;5.40;91.56
81509;BME280;70930;52.412;13.554;2024-02-04T05:28:42;101133.19;;;5.29;92.19
81509;BME280;70930;52.412;13.554;2024-02-04T05:31:07;101131.94;;;5.33;91.57
81509;BME280;70930;52.412;13.554;2024-02-04T05:33:33;101129.16;;;5.34;91.45
81509;BME280;70930;52.412;13.554;2024-02-04T05:35:58;101127.81;;;5.40;91.13
81509;BME280;70930;52.412;13.554;2024-02-04T05:38:23;101117.22;;;5.30;91.85
81509;BME280;70930;52.412;13.554;2024-02-04T05:40:49;101116.00;;;5.34;91.92
81509;BME280;70930;52.412;13.554;2024-02-04T05:43:14;101106.19;;;5.36;90.77
81509;BME280;70930;52.412;13.554;2024-02-04T05:45:39;101110.13;;;5.21;91.45
81509;BME280;70930;52.412;13.554;2024-02-04T05:48:08;101102.97;;;5.33;91.85
81509;BME280;70930;52.412;13.554;2024-02-04T05:50:34;101103.03;;;5.12;92.57
81509;BME280;70930;52.412;13.554;2024-02-04T05:52:59;101109.44;;;5.19;92.59
81509;BME280;70930;52.412;13.554;2024-02-04T05:55:24;101120.28;;;5.26;92.25
81509;BME280;70930;52.412;13.554;2024-02-04T05:57:50;101112.13;;;5.29;91.91
81509;BME280;70930;52.412;13.554;2024-02-04T06:00:16;101114.88;;;5.27;91.83
81509;BME280;70930;52.412;13.554;2024-02-04T06:02:41;101124.44;;;5.28;92.05
81509;BME280;70930;52.412;13.554;2024-02-04T06:05:09;101113.09;;;5.28;92.17
81509;BME280;70930;52.412;13.554;2024-02-04T06:07:34;101107.84;;;5.37;92.28
81509;BME280;70930;52.412;13.554;2024-02-04T06:09:59;101115.50;;;5.40;91.20
81509;BME280;70930;52.412;13.554;2024-02-04T06:12:26;101116.06;;;5.44;91.44
81509;BME280;70930;52.412;13.554;2024-02-04T06:14:51;101107.19;;;5.45;90.89
81509;BME280;70930;52.412;13.554;2024-02-04T06:17:17;101115.50;;;5.40;91.47
81509;BME280;70930;52.412;13.554;2024-02-04T06:19:42;101112.16;;;5.38;91.49
81509;BME280;70930;52.412;13.554;2024-02-04T06:22:07;101113.94;;;5.38;92.04
81509;BME280;70930;52.412;13.554;2024-02-04T06:24:33;101101.75;;;5.37;92.09
81509;BME280;70930;52.412;13.554;2024-02-04T06:26:58;101113.94;;;5.38;91.28
81509;BME280;70930;52.412;13.554;2024-02-04T06:29:23;101107.59;;;5.40;91.08
81509;BME280;70930;52.412;13.554;2024-02-04T06:31:49;101103.97;;;5.41;91.23
81509;BME280;70930;52.412;13.554;2024-02-04T06:34:14;101110.53;;;5.47;91.10
81509;BME280;70930;52.412;13.554;2024-02-04T06:36:43;101108.16;;;5.44;90.83
81509;BME280;70930;52.412;13.554;2024-02-04T06:39:09;101115.22;;;5.44;90.86
81509;BME280;70930;52.412;13.554;2024-02-04T06:41:34;101111.47;;;5.46;90.83
81509;BME280;70930;52.412;13.554;2024-02-04T06:44:00;101101.66;;;5.48;90.70
81509;BME280;70930;52.412;13.554;2024-02-04T06:46:27;101105.53;;;5.44;91.75
81509;BME280;70930;52.412;13.554;2024-02-04T06:48:52;101108.63;;;5.59;90.84
81509;BME280;70930;52.412;13.554;2024-02-04T06:51:18;101099.91;;;5.58;91.05
81509;BME280;70930;52.412;13.554;2024-02-04T06:53:43;101099.34;;;5.64;91.17
81509;BME280;70930;52.412;13.554;2024-02-04T06:56:09;101109.19;;;5.62;91.57
81509;BME280;70930;52.412;13.554;2024-02-04T06:58:37;101110.59;;;5.66;91.31
81509;BME280;70930;52.412;13.554;2024-02-04T07:01:02;101118.19;;;5.60;92.42
81509;BME280;70930;52.412;13.554;2024-02-04T07:03:28;101113.09;;;5.68;91.48
81509;BME280;70930;52.412;13.554;2024-02-04T07:05:54;101120.84;;;5.60;92.28
81509;BME280;70930;52.412;13.554;2024-02-04T07:08:19;101122.38;;;5.72;92.33
81509;BME280;70930;52.412;13.554;2024-02-04T07:10:45;101112.16;;;5.79;91.21
81509;BME280;70930;52.412;13.554;2024-02-04T07:13:10;101115.78;;;5.87;91.40
81509;BME280;70930;52.412;13.554;2024-02-04T07:15:36;101115.28;;;5.94;91.49
81509;BME280;70930;52.412;13.554;2024-02-04T07:18:02;101112.50;;;5.95;90.53
81509;BME280;70930;52.412;13.554;2024-02-04T07:20:27;101109.25;;;5.91;90.81
81509;BME280;70930;52.412;13.554;2024-02-04T07:22:53;101104.13;;;5.90;90.23
81509;BME280;70930;52.412;13.554;2024-02-04T07:25:18;101099.16;;;5.97;89.93
81509;BME280;70930;52.412;13.554;2024-02-04T07:27:43;101097.38;;;6.17;89.22
81509;BME280;70930;52.412;13.554;2024-02-04T07:30:09;101095.44;;;6.09;88.96
81509;BME280;70930;52.412;13.554;2024-02-04T07:32:34;101096.56;;;6.16;88.60
81509;BME280;70930;52.412;13.554;2024-02-04T07:35:02;101096.84;;;6.23;88.46
81509;BME280;70930;52.412;13.554;2024-02-04T07:37:27;101100.16;;;6.25;88.22
81509;BME280;70930;52.412;13.554;2024-02-04T07:39:53;101092.66;;;6.20;88.18
81509;BME280;70930;52.412;13.554;2024-02-04T07:42:18;101092.69;;;6.30;87.72
81509;BME280;70930;52.412;13.554;2024-02-04T07:44:43;101099.91;;;6.18;87.74
81509;BME280;70930;52.412;13.554;2024-02-04T07:47:09;101087.41;;;6.30;87.29
81509;BME280;70930;52.412;13.554;2024-02-04T07:49:34;101079.63;;;6.28;87.64
81509;BME280;70930;52.412;13.554;2024-02-04T07:51:59;101076.59;;;6.33;87.61
81509;BME280;70930;52.412;13.554;2024-02-04T07:54:25;101069.09;;;6.38;87.68
81509;BME280;70930;52.412;13.554;2024-02-04T07:56:50;101053.13;;;6.30;87.37
81509;BME280;70930;52.412;13.554;2024-02-04T07:59:15;101065.06;;;6.34;88.22
81509;BME280;70930;52.412;13.554;2024-02-04T08:01:41;101053.25;;;6.28;87.74
81509;BME280;70930;52.412;13.554;2024-02-04T08:04:06;101054.78;;;6.31;88.09
81509;BME280;70930;52.412;13.554;2024-02-04T08:06:33;101059.38;;;6.38;87.36
81509;BME280;70930;52.412;13.554;2024-02-04T08:08:59;101063.50;;;6.51;87.74
81509;BME280;70930;52.412;13.554;2024-02-04T08:11:25;101061.16;;;6.57;86.43
81509;BME280;70930;52.412;13.554;2024-02-04T08:13:50;101063.75;;;6.67;86.96
81509;BME280;70930;52.412;13.554;2024-02-04T08:16:15;101062.66;;;6.60;86.43
81509;BME280;70930;52.412;13.554;2024-02-04T08:18:41;101057.38;;;6.60;87.24
81509;BME280;70930;52.412;13.554;2024-02-04T08:21:06;101058.47;;;6.67;86.52
81509;BME280;70930;52.412;13.554;2024-02-04T08:23:32;101050.56;;;6.77;85.79
81509;BME280;70930;52.412;13.554;2024-02-04T08:25:58;101039.00;;;6.78;85.52
81509;BME280;70930;52.412;13.554;2024-02-04T08:28:24;101049.25;;;6.91;86.18
81509;BME280;70930;52.412;13.554;2024-02-04T08:30:49;101048.41;;;6.90;85.83
81509;BME280;70930;52.412;13.554;2024-02-04T08:33:15;101060.41;;;6.84;84.66
81509;BME280;70930;52.412;13.554;2024-02-04T08:35:40;101048.25;;;6.92;84.65
81509;BME280;70930;52.412;13.554;2024-02-04T08:38:06;101042.97;;;7.01;85.21
81509;BME280;70930;52.412;13.554;2024-02-04T08:40:31;101051.06;;;7.00;84.15
81509;BME280;70930;52.412;13.554;2024-02-04T08:42:56;101053.69;;;7.00;84.10
81509;BME280;70930;52.412;13.554;2024-02-04T08:45:22;101045.22;;;6.86;84.17
81509;BME280;70930;52.412;13.554;2024-02-04T08:47:47;101043.13;;;7.00;84.30
81509;BME280;70930;52.412;13.554;2024-02-04T08:50:12;101037.78;;;7.09;83.44
81509;BME280;70930;52.412;13.554;2024-02-04T08:52:39;101030.84;;;7.08;84.55
81509;BME280;70930;52.412;13.554;2024-02-04T08:55:04;101030.31;;;7.05;84.04
81509;BME280;70930;52.412;13.554;2024-02-04T08:57:30;101029.16;;;7.17;83.28
81509;BME280;70930;52.412;13.554;2024-02-04T08:59:55;101030.69;;;7.10;84.05
81509;BME280;70930;52.412;13.554;2024-02-04T09:02:20;101027.66;;;7.05;82.93
81509;BME280;70930;52.412;13.554;2024-02-04T09:04:46;101017.84;;;6.97;83.38
81509;BME280;70930;52.412;13.554;2024-02-04T09:07:12;101019.28;;;7.19;83.26
81509;BME280;70930;52.412;13.554;2024-02-04T09:09:37;101022.06;;;7.18;82.00
81509;BME280;70930;52.412;13.554;2024-02-04T09:12:03;101017.06;;;7.14;82.04
81509;BME280;70930;52.412;13.554;2024-02-04T09:14:29;101009.38;;;7.21;82.07
81509;BME280;70930;52.412;13.554;2024-02-04T09:16:54;101018.75;;;7.16;81.72
81509;BME280;70930;52.412;13.554;2024-02-04T09:19:19;101010.19;;;7.31;81.00
81509;BME280;70930;52.412;13.554;2024-02-04T09:21:45;101008.47;;;7.40;80.55
81509;BME280;70930;52.412;13.554;2024-02-04T09:24:10;101014.47;;;7.32;80.51
81509;BME280;70930;52.412;13.554;2024-02-04T09:26:36;101006.25;;;7.35;80.71
81509;BME280;70930;52.412;13.554;2024-02-04T09:29:01;101009.66;;;7.46;79.88
81509;BME280;70930;52.412;13.554;2024-02-04T09:31:27;101004.97;;;7.40;79.97
81509;BME280;70930;52.412;13.554;2024-02-04T09:33:53;101015.72;;;7.56;79.07
81509;BME280;70930;52.412;13.554;2024-02-04T09:36:19;101009.75;;;7.54;79.29
81509;BME280;70930;52.412;13.554;2024-02-04T09:38:44;101018.38;;;7.56;78.20
81509;BME280;70930;52.412;13.554;2024-02-04T09:41:09;101005.28;;;7.54;78.92
81509;BME280;70930;52.412;13.554;2024-02-04T09:43:35;101006.81;;;7.57;77.76
81509;BME280;70930;52.412;13.554;2024-02-04T09:46:01;101001.53;;;7.57;77.51
81509;BME280;70930;52.412;13.554;2024-02-04T09:48:31;101003.13;;;7.68;76.57
81509;BME280;70930;52.412;13.554;2024-02-04T09:50:57;100994.75;;;7.72;76.49
81509;BME280;70930;52.412;13.554;2024-02-04T09:53:32;100991.34;;;7.80;76.44
81509;BME280;70930;52.412;13.554;2024-02-04T09:55:59;101005.56;;;7.79;75.55
81509;BME280;70930;52.412;13.554;2024-02-04T09:58:26;101011.13;;;7.94;74.85
81509;BME280;70930;52.412;13.554;2024-02-04T10:00:51;100991.50;;;7.78;74.54
81509;BME280;70930;52.412;13.554;2024-02-04T10:03:18;100987.59;;;7.82;75.65
81509;BME280;70930;52.412;13.554;2024-02-04T10:05:44;100992.41;;;7.87;75.05
81509;BME280;70930;52.412;13.554;2024-02-04T10:08:10;100985.91;;;7.81;74.29
81509;BME280;70930;52.412;13.554;2024-02-04T10:10:35;100989.84;;;7.77;72.71
81509;BME280;70930;52.412;13.554;2024-02-04T10:13:06;100998.00;;;7.84;73.49
81509;BME280;70930;52.412;13.554;2024-02-04T10:15:32;100984.63;;;7.85;72.80
81509;BME280;70930;52.412;13.554;2024-02-04T10:17:58;100986.72;;;8.00;73.13
81509;BME280;70930;52.412;13.554;2024-02-04T10:20:23;100980.56;;;7.91;71.99
81509;BME280;70930;52.412;13.554;2024-02-04T10:22:48;100983.25;;;7.99;72.35
81509;BME280;70930;52.412;13.554;2024-02-04T10:25:15;100978.38;;;7.86;71.59
81509;BME280;70930;52.412;13.554;2024-02-04T10:27:42;100965.34;;;8.11;70.78
81509;BME280;70930;52.412;13.554;2024-02-04T10:30:08;100975.28;;;8.17;70.89
81509;BME280;70930;52.412;13.554;2024-02-04T10:32:34;100967.28;;;8.27;71.40
81509;BME280;70930;52.412;13.554;2024-02-04T10:34:59;100972.03;;;8.23;71.60
81509;BME280;70930;52.412;13.554;2024-02-04T10:37:26;100958.75;;;8.15;70.58
81509;BME280;70930;52.412;13.554;2024-02-04T10:39:52;100958.00;;;8.23;71.67
81509;BME280;70930;52.412;13.554;2024-02-04T10:42:22;100951.69;;;8.24;70.38
81509;BME280;70930;52.412;13.554;2024-02-04T10:44:49;100949.06;;;8.24;69.82
81509;BME280;70930;52.412;13.554;2024-02-04T10:47:16;100942.38;;;8.11;69.98
81509;BME280;70930;52.412;13.554;2024-02-04T10:49:50;100946.72;;;8.21;69.90
81509;BME280;70930;52.412;13.554;2024-02-04T10:52:17;100953.63;;;8.14;69.35
81509;BME280;70930;52.412;13.554;2024-02-04T10:54:43;100960.72;;;8.13;71.18
81509;BME280;70930;52.412;13.554;2024-02-04T10:57:12;100951.44;;;8.09;70.42
81509;BME280;70930;52.412;13.554;2024-02-04T10:59:42;100950.91;;;8.05;70.24
81509;BME280;70930;52.412;13.554;2024-02-04T11:02:09;100948.59;;;8.02;69.78
81509;BME280;70930;52.412;13.554;2024-02-04T11:04:36;100934.19;;;8.05;69.79
81509;BME280;70930;52.412;13.554;2024-02-04T11:07:03;100929.44;;;8.08;70.84
81509;BME280;70930;52.412;13.554;2024-02-04T11:09:29;100928.25;;;8.03;70.26
81509;BME280;70930;52.412;13.554;2024-02-04T11:11:58;100921.63;;;7.99;69.99
81509;BME280;70930;52.412;13.554;2024-02-04T11:14:25;100926.13;;;8.06;70.25
81509;BME280;70930;52.412;13.554;2024-02-04T11:25:46;100929.75;;;8.05;70.02
81509;BME280;70930;52.412;13.554;2024-02-04T11:28:04;100930.59;;;8.06;68.72
81509;BME280;70930;52.412;13.554;2024-02-04T11:30:33;100925.09;;;7.99;69.96
81509;BME280;70930;52.412;13.554;2024-02-04T11:33:06;100913.22;;;8.03;69.19
81509;BME280;70930;52.412;13.554;2024-02-04T11:35:32;100903.88;;;8.17;69.51
81509;BME280;70930;52.412;13.554;2024-02-04T11:37:58;100909.63;;;8.12;69.35
81509;BME280;70930;52.412;13.554;2024-02-04T11:40:30;100903.88;;;8.17;67.89
81509;BME280;70930;52.412;13.554;2024-02-04T11:43:07;100899.09;;;8.21;68.63
81509;BME280;70930;52.412;13.554;2024-02-04T11:45:33;100895.16;;;8.25;69.15
81509;BME280;70930;52.412;13.554;2024-02-04T11:48:06;100886.78;;;8.29;67.80
81509;BME280;70930;52.412;13.554;2024-02-04T11:50:31;100883.75;;;8.24;68.71
81509;BME280;70930;52.412;13.554;2024-02-04T11:53:11;100867.00;;;8.16;67.71
81509;BME280;70930;52.412;13.554;2024-02-04T11:55:39;100859.38;;;8.12;69.21
81509;BME280;70930;52.412;13.554;2024-02-04T11:58:05;100850.56;;;8.30;68.73
81509;BME280;70930;52.412;13.554;2024-02-04T12:00:34;100857.41;;;8.41;68.48
81509;BME280;70930;52.412;13.554;2024-02-04T12:03:05;100845.56;;;8.53;67.84
81509;BME280;70930;52.412;13.554;2024-02-04T12:05:35;100852.09;;;8.41;66.68
81509;BME280;70930;52.412;13.554;2024-02-04T12:08:05;100865.50;;;8.39;68.48
81509;BME280;70930;52.412;13.554;2024-02-04T12:10:32;100858.50;;;8.30;68.24
81509;BME280;70930;52.412;13.554;2024-02-04T12:13:05;100863.22;;;8.44;68.47
81509;BME280;70930;52.412;13.554;2024-02-04T12:15:34;100864.41;;;8.50;67.05
81509;BME280;70930;52.412;13.554;2024-02-04T12:18:09;100871.97;;;8.45;67.33
81509;BME280;70930;52.412;13.554;2024-02-04T12:20:36;100884.56;;;8.43;66.77
81509;BME280;70930;52.412;13.554;2024-02-04T12:23:03;100868.59;;;8.34;65.96
81509;BME280;70930;52.412;13.554;2024-02-04T12:25:29;100858.81;;;8.27;66.26
81509;BME280;70930;52.412;13.554;2024-02-04T12:27:57;100856.00;;;8.28;66.56
81509;BME280;70930;52.412;13.554;2024-02-04T12:30:23;100858.41;;;8.40;66.81
81509;BME280;70930;52.412;13.554;2024-02-04T12:32:58;100868.97;;;8.40;66.58
81509;BME280;70930;52.412;13.554;2024-02-04T12:35:25;100854.50;;;8.26;65.25
81509;BME280;70930;52.412;13.554;2024-02-04T12:37:53;100858.03;;;8.08;66.48
81509;BME280;70930;52.412;13.554;2024-02-04T12:40:22;100867.56;;;8.01;66.65
81509;BME280;70930;52.412;13.554;2024-02-04T12:42:58;100865.03;;;7.92;67.19
81509;BME280;70930;52.412;13.554;2024-02-04T12:45:24;100869.38;;;8.01;67.65
81509;BME280;70930;52.412;13.554;2024-02-04T12:47:54;100866.09;;;7.99;67.64
81509;BME280;70930;52.412;13.554;2024-02-04T12:50:20;100875.50;;;8.01;67.16
81509;BME280;70930;52.412;13.554;2024-02-04T12:53:02;100857.09;;;7.92;67.02
81509;BME280;70930;52.412;13.554;2024-02-04T12:55:28;100853.22;;;8.04;66.53
81509;BME280;70930;52.412;13.554;2024-02-04T13:00:29;100859.16;;;7.98;65.62
81509;BME280;70930;52.412;13.554;2024-02-04T13:02:55;100843.66;;;7.85;67.25
81509;BME280;70930;52.412;13.554;2024-02-04T13:05:27;100849.47;;;7.88;66.48